createdAt,value
2018-01-26T00:01:09.683Z,101295.95
2018-01-26T00:03:35.998Z,101292.05
2018-01-26T00:06:02.529Z,101289.86
2018-01-26T00:08:28.820Z,101292.92
2018-01-26T00:10:55.181Z,101290.30
2018-01-26T00:13:21.586Z,101295.06
2018-01-26T00:15:47.816Z,101290.69
2018-01-26T00:18:14.080Z,101295.91
2018-01-26T00:20:40.671Z,101299.22
2018-01-26T00:23:06.911Z,101297.42
2018-01-26T00:25:33.132Z,101300.05
2018-01-26T00:27:59.372Z,101297.50
2018-01-26T00:30:25.592Z,101291.06
2018-01-26T00:32:51.876Z,101281.57
2018-01-26T00:35:18.113Z,101276.36
2018-01-26T00:37:44.367Z,101281.69
2018-01-26T00:40:10.948Z,101287.05
2018-01-26T00:42:37.417Z,101289.30
2018-01-26T00:45:03.657Z,101298.92
2018-01-26T00:47:29.938Z,101292.79
2018-01-26T00:49:56.145Z,101291.15
2018-01-26T00:52:22.446Z,101286.36
2018-01-26T00:54:48.749Z,101293.36
2018-01-26T00:57:14.998Z,101290.32
2018-01-26T00:59:41.282Z,101285.07
2018-01-26T01:02:07.528Z,101283.29
2018-01-26T01:04:34.051Z,101282.86
2018-01-26T01:07:00.248Z,101285.07
2018-01-26T01:09:26.515Z,101291.61
2018-01-26T01:11:52.747Z,101295.95
2018-01-26T01:14:19.057Z,101295.09
2018-01-26T01:16:45.600Z,101301.18
2018-01-26T01:19:11.870Z,101304.68
2018-01-26T01:21:38.090Z,101302.13
2018-01-26T01:24:04.334Z,101308.28
2018-01-26T01:26:30.559Z,101314.87
2018-01-26T01:28:57.258Z,101313.12
2018-01-26T01:31:23.566Z,101312.73
2018-01-26T01:33:49.770Z,101314.95
2018-01-26T01:36:16.020Z,101318.05
2018-01-26T01:38:42.234Z,101319.83
2018-01-26T01:41:08.436Z,101316.81
2018-01-26T01:43:34.697Z,101319.42
2018-01-26T01:46:00.891Z,101317.27
2018-01-26T01:48:27.083Z,101322.56
2018-01-26T01:50:53.317Z,101321.25
2018-01-26T01:53:19.766Z,101318.60
2018-01-26T01:55:45.991Z,101313.73
2018-01-26T01:58:12.251Z,101322.89
2018-01-26T02:00:38.741Z,101328.59
2018-01-26T02:03:04.964Z,101324.25
2018-01-26T02:05:31.601Z,101322.45
2018-01-26T02:07:57.803Z,101326.78
2018-01-26T02:10:24.011Z,101323.31
2018-01-26T02:12:50.264Z,101321.14
2018-01-26T02:22:13.940Z,101324.25
2018-01-26T02:24:40.528Z,101326.45
2018-01-26T02:27:06.732Z,101332.57
2018-01-26T02:29:32.932Z,101338.69
2018-01-26T02:31:59.694Z,101333.80
2018-01-26T02:34:26.161Z,101328.58
2018-01-26T02:36:58.951Z,101331.67
2018-01-26T02:39:25.374Z,101329.94
2018-01-26T02:41:51.652Z,101332.55
2018-01-26T02:44:18.003Z,101325.54
2018-01-26T02:46:44.210Z,101333.39
2018-01-26T02:49:10.408Z,101331.66
2018-01-26T02:51:36.678Z,101336.87
2018-01-26T02:54:02.883Z,101330.33
2018-01-26T02:56:29.074Z,101334.75
2018-01-26T02:58:55.346Z,101328.58
2018-01-26T03:01:21.563Z,101327.28
2018-01-26T03:03:48.087Z,101323.39
2018-01-26T03:06:14.604Z,101322.09
2018-01-26T03:08:40.818Z,101330.41
2018-01-26T03:11:07.035Z,101326.04
2018-01-26T03:13:33.282Z,101330.85
2018-01-26T03:15:59.491Z,101330.84
2018-01-26T03:18:25.743Z,101331.28
2018-01-26T03:20:51.938Z,101334.34
2018-01-26T03:23:18.128Z,101342.22
2018-01-26T03:25:44.415Z,101347.50
2018-01-26T03:28:10.621Z,101348.78
2018-01-26T03:30:37.146Z,101348.37
2018-01-26T03:33:03.483Z,101357.95
2018-01-26T03:35:29.667Z,101362.78
2018-01-26T03:37:55.873Z,101362.29
2018-01-26T03:40:22.401Z,101358.77
2018-01-26T03:42:48.795Z,101361.39
2018-01-26T03:45:14.986Z,101362.31
2018-01-26T03:50:13.039Z,101381.58
2018-01-26T03:52:40.234Z,101384.20
2018-01-26T03:55:06.497Z,101398.70
2018-01-26T03:57:32.684Z,101403.08
2018-01-26T03:59:58.890Z,101410.49
2018-01-26T04:02:25.145Z,101413.12
2018-01-26T04:04:51.383Z,101408.77
2018-01-26T04:07:17.575Z,101404.82
2018-01-26T04:09:43.847Z,101406.59
2018-01-26T04:12:10.035Z,101404.42
2018-01-26T04:14:36.234Z,101410.53
2018-01-26T04:17:02.502Z,101413.61
2018-01-26T04:19:28.710Z,101412.31
2018-01-26T04:21:54.908Z,101409.27
2018-01-26T04:24:21.152Z,101405.38
2018-01-26T04:26:47.354Z,101406.68
2018-01-26T04:29:13.592Z,101414.11
2018-01-26T04:31:39.829Z,101409.78
2018-01-26T04:34:06.035Z,101411.54
2018-01-26T04:36:32.293Z,101410.68
2018-01-26T04:38:58.479Z,101409.78
2018-01-26T04:41:24.725Z,101410.63
2018-01-26T04:43:51.001Z,101407.98
2018-01-26T04:46:17.219Z,101408.01
2018-01-26T04:48:43.434Z,101406.68
2018-01-26T04:51:09.995Z,101411.01
2018-01-26T04:53:36.251Z,101411.47
2018-01-26T04:56:02.461Z,101415.50
2018-01-26T04:58:28.749Z,101416.36
2018-01-26T05:00:55.267Z,101419.42
2018-01-26T05:03:21.479Z,101421.15
2018-01-26T05:05:47.794Z,101424.23
2018-01-26T05:08:13.986Z,101429.95
2018-01-26T05:10:40.498Z,101426.47
2018-01-26T05:13:06.707Z,101432.16
2018-01-26T05:15:33.246Z,101435.23
2018-01-26T05:17:59.530Z,101437.41
2018-01-26T05:20:25.746Z,101433.41
2018-01-26T05:22:51.959Z,101443.02
2018-01-26T05:25:18.258Z,101443.02
2018-01-26T05:27:44.492Z,101435.22
2018-01-26T05:30:10.687Z,101429.46
2018-01-26T05:32:36.976Z,101437.77
2018-01-26T05:35:03.186Z,101434.73
2018-01-26T05:37:29.387Z,101439.57
2018-01-26T05:39:56.008Z,101442.58
2018-01-26T05:42:22.254Z,101446.05
2018-01-26T05:44:48.663Z,101446.00
2018-01-26T05:47:15.180Z,101448.23
2018-01-26T05:49:41.510Z,101463.57
2018-01-26T05:52:07.714Z,101470.59
2018-01-26T05:54:34.309Z,101461.84
2018-01-26T05:57:00.613Z,101468.44
2018-01-26T05:59:26.825Z,101464.97
2018-01-26T06:01:53.095Z,101468.03
2018-01-26T06:04:19.553Z,101469.78
2018-01-26T06:06:45.750Z,101474.16
2018-01-26T06:09:12.374Z,101479.89
2018-01-26T06:11:38.583Z,101486.05
2018-01-26T06:14:04.798Z,101487.36
2018-01-26T06:16:31.047Z,101488.64
2018-01-26T06:18:57.255Z,101488.66
2018-01-26T06:21:23.460Z,101495.70
2018-01-26T06:23:50.037Z,101495.60
2018-01-26T06:26:16.297Z,101495.60
2018-01-26T06:28:42.559Z,101498.69
2018-01-26T06:31:08.878Z,101496.98
2018-01-26T06:33:35.086Z,101497.02
2018-01-26T06:36:01.288Z,101498.76
2018-01-26T06:38:27.820Z,101504.86
2018-01-26T06:40:54.038Z,101504.86
2018-01-26T06:43:20.534Z,101506.17
2018-01-26T06:45:46.820Z,101508.35
2018-01-26T06:48:13.252Z,101515.69
2018-01-26T06:50:39.530Z,101520.45
2018-01-26T06:53:05.784Z,101519.08
2018-01-26T06:55:31.994Z,101523.00
2018-01-26T06:57:58.472Z,101531.28
2018-01-26T07:00:24.713Z,101524.73
2018-01-26T07:02:51.139Z,101526.06
2018-01-26T07:05:17.772Z,101533.52
2018-01-26T07:07:43.966Z,101537.00
2018-01-26T07:10:10.236Z,101535.72
2018-01-26T07:12:36.500Z,101553.25
2018-01-26T07:15:02.708Z,101544.95
2018-01-26T07:17:29.177Z,101557.59
2018-01-26T07:19:55.436Z,101564.16
2018-01-26T07:22:21.662Z,101578.15
2018-01-26T07:24:47.970Z,101573.74
2018-01-26T07:27:14.486Z,101578.09
2018-01-26T07:29:40.674Z,101581.61
2018-01-26T07:32:07.035Z,101580.77
2018-01-26T07:34:33.549Z,101582.13
2018-01-26T07:36:59.752Z,101583.46
2018-01-26T07:39:25.973Z,101590.01
2018-01-26T07:41:52.241Z,101593.98
2018-01-26T07:44:18.475Z,101596.64
2018-01-26T07:46:45.025Z,101597.50
2018-01-26T07:49:11.308Z,101597.96
2018-01-26T07:51:37.757Z,101596.25
2018-01-26T07:54:04.029Z,101600.63
2018-01-26T07:56:30.269Z,101607.19
2018-01-26T07:58:56.477Z,101614.16
2018-01-26T08:01:22.991Z,101610.66
2018-01-26T08:03:49.461Z,101615.05
2018-01-26T08:06:15.708Z,101621.60
2018-01-26T08:08:42.259Z,101626.78
2018-01-26T08:11:08.561Z,101625.50
2018-01-26T08:13:34.794Z,101623.33
2018-01-26T08:16:01.402Z,101621.19
2018-01-26T08:18:27.643Z,101621.58
2018-01-26T08:20:53.834Z,101620.27
2018-01-26T08:23:20.108Z,101617.68
2018-01-26T08:25:46.334Z,101611.96
2018-01-26T08:28:12.854Z,101618.94
2018-01-26T08:30:39.104Z,101631.19
2018-01-26T08:33:05.314Z,101629.89
2018-01-26T08:35:31.534Z,101636.89
2018-01-26T08:37:57.774Z,101628.08
2018-01-26T08:40:23.998Z,101638.98
2018-01-26T08:42:50.264Z,101635.50
2018-01-26T08:45:16.489Z,101632.44
2018-01-26T08:47:42.711Z,101631.59
2018-01-26T08:50:08.984Z,101643.87
2018-01-26T08:52:35.310Z,101645.59
2018-01-26T08:55:01.564Z,101651.28
2018-01-26T08:57:27.817Z,101649.57
2018-01-26T08:59:54.024Z,101654.82
2018-01-26T09:02:20.506Z,101656.94
2018-01-26T09:04:47.046Z,101666.11
2018-01-26T09:07:13.571Z,101672.65
2018-01-26T09:09:39.794Z,101677.91
2018-01-26T09:12:06.698Z,101679.25
2018-01-26T09:14:32.897Z,101681.02
2018-01-26T09:16:59.122Z,101688.03
2018-01-26T09:19:25.381Z,101690.63
2018-01-26T09:21:51.647Z,101694.08
2018-01-26T09:24:17.875Z,101701.08
2018-01-26T09:26:44.188Z,101704.16
2018-01-26T09:29:10.418Z,101714.68
2018-01-26T09:31:36.630Z,101712.52
2018-01-26T09:34:02.886Z,101721.69
2018-01-26T09:36:29.084Z,101729.59
2018-01-26T09:38:55.299Z,101733.11
2018-01-26T09:41:21.554Z,101727.45
2018-01-26T09:43:47.755Z,101732.23
2018-01-26T09:46:13.963Z,101733.55
2018-01-26T09:48:40.348Z,101734.41
2018-01-26T09:51:06.541Z,101734.87
2018-01-26T09:53:32.737Z,101734.42
2018-01-26T09:55:58.993Z,101738.81
2018-01-26T09:58:25.212Z,101744.06
2018-01-26T10:00:51.398Z,101746.27
2018-01-26T10:03:17.648Z,101745.80
2018-01-26T10:05:44.068Z,101750.14
2018-01-26T10:08:10.276Z,101748.39
2018-01-26T10:10:36.832Z,101760.21
2018-01-26T10:13:03.053Z,101762.84
2018-01-26T10:15:29.509Z,101755.82
2018-01-26T10:17:56.091Z,101749.25
2018-01-26T10:20:22.278Z,101753.19
2018-01-26T10:22:48.696Z,101752.73
2018-01-26T10:25:15.236Z,101754.05
2018-01-26T10:27:41.413Z,101750.55
2018-01-26T10:30:07.601Z,101752.31
2018-01-26T10:32:33.856Z,101756.25
2018-01-26T10:35:00.048Z,101773.32
2018-01-26T10:37:26.246Z,101776.79
2018-01-26T10:39:52.447Z,101782.89
2018-01-26T10:42:18.903Z,101779.39
2018-01-26T10:44:45.180Z,101784.66
2018-01-26T10:47:11.440Z,101785.11
2018-01-26T10:49:37.633Z,101789.49
2018-01-26T10:52:03.841Z,101785.13
2018-01-26T10:54:30.079Z,101793.01
2018-01-26T10:56:56.274Z,101794.72
2018-01-26T10:59:22.438Z,101793.42
2018-01-26T11:01:48.688Z,101795.58
2018-01-26T11:04:14.867Z,101801.27
2018-01-26T11:06:41.371Z,101804.33
2018-01-26T11:09:07.644Z,101796.89
2018-01-26T11:11:34.061Z,101797.30
2018-01-26T11:14:00.245Z,101794.67
2018-01-26T11:16:26.487Z,101796.84
2018-01-26T11:18:52.670Z,101796.41
2018-01-26T11:21:18.862Z,101799.48
2018-01-26T11:23:45.104Z,101800.77
2018-01-26T11:26:11.376Z,101805.59
2018-01-26T11:28:37.539Z,101812.60
2018-01-26T11:31:04.124Z,101814.41
2018-01-26T11:33:30.555Z,101823.13
2018-01-26T11:35:56.782Z,101826.63
2018-01-26T11:38:23.023Z,101828.79
2018-01-26T11:40:49.219Z,101826.19
2018-01-26T11:43:15.427Z,101823.54
2018-01-26T11:45:41.693Z,101834.47
2018-01-26T11:48:08.116Z,101832.69
2018-01-26T11:50:34.330Z,101833.08
2018-01-26T11:53:01.035Z,101836.57
2018-01-26T11:55:27.223Z,101832.18
2018-01-26T11:57:53.436Z,101834.86
2018-01-26T12:00:20.337Z,101841.84
2018-01-26T12:02:46.540Z,101839.23
2018-01-26T12:05:12.982Z,101844.06
2018-01-26T12:07:39.242Z,101844.08
2018-01-26T12:10:05.709Z,101842.36
2018-01-26T12:12:31.897Z,101841.06
2018-01-26T12:14:58.421Z,101850.25
2018-01-26T12:17:24.629Z,101840.63
2018-01-26T12:19:50.863Z,101847.19
2018-01-26T12:22:17.171Z,101857.69
2018-01-26T12:24:43.516Z,101859.44
2018-01-26T12:27:10.008Z,101868.64
2018-01-26T12:29:36.290Z,101865.59
2018-01-26T12:32:02.732Z,101865.12
2018-01-26T12:34:28.974Z,101864.23
2018-01-26T12:36:55.224Z,101860.73
2018-01-26T12:39:21.432Z,101858.98
2018-01-26T12:41:47.857Z,101861.61
2018-01-26T12:44:14.351Z,101859.45
2018-01-26T12:46:40.549Z,101859.42
2018-01-26T12:49:06.747Z,101863.36
2018-01-26T12:51:33.317Z,101852.89
2018-01-26T12:53:59.753Z,101862.97
2018-01-26T12:56:26.238Z,101859.00
2018-01-26T12:58:52.772Z,101851.11
2018-01-26T13:01:19.076Z,101849.81
2018-01-26T13:03:45.578Z,101866.43
2018-01-26T13:06:11.767Z,101870.81
2018-01-26T13:08:38.213Z,101874.33
2018-01-26T13:11:04.525Z,101876.53
2018-01-26T13:13:31.066Z,101882.63
2018-01-26T13:15:57.739Z,101877.41
2018-01-26T13:18:23.907Z,101883.50
2018-01-26T13:20:50.362Z,101877.81
2018-01-26T13:23:16.602Z,101876.94
2018-01-26T13:25:43.023Z,101888.75
2018-01-26T13:28:09.565Z,101895.76
2018-01-26T13:30:35.810Z,101900.16
2018-01-26T13:33:02.000Z,101901.47
2018-01-26T13:35:28.229Z,101906.69
2018-01-26T13:37:54.433Z,101911.47
2018-01-26T13:40:26.628Z,101919.33
2018-01-26T13:42:53.480Z,101912.75
2018-01-26T13:45:19.721Z,101911.45
2018-01-26T13:47:45.895Z,101919.81
2018-01-26T13:50:12.157Z,101919.41
2018-01-26T13:52:38.367Z,101924.22
2018-01-26T13:55:04.650Z,101924.61
2018-01-26T13:57:30.885Z,101931.17
2018-01-26T13:59:57.121Z,101930.63
2018-01-26T14:02:23.379Z,101931.51
2018-01-26T14:04:49.571Z,101935.45
2018-01-26T14:07:15.774Z,101932.41
2018-01-26T14:09:42.295Z,101933.30
2018-01-26T14:12:08.574Z,101939.88
2018-01-26T14:14:34.827Z,101945.60
2018-01-26T14:17:01.032Z,101942.10
2018-01-26T14:19:27.222Z,101952.63
2018-01-26T14:21:53.801Z,101960.95
2018-01-26T14:24:19.990Z,101958.36
2018-01-26T14:26:46.188Z,101958.80
2018-01-26T14:29:12.636Z,101912.67
2018-01-26T14:31:38.826Z,101966.69
2018-01-26T14:34:05.083Z,101970.62
2018-01-26T14:36:31.267Z,101979.36
2018-01-26T14:38:57.759Z,101984.61
2018-01-26T14:41:24.011Z,101988.13
2018-01-26T14:43:50.212Z,101994.25
2018-01-26T14:46:16.383Z,101995.14
2018-01-26T14:48:42.638Z,101990.31
2018-01-26T14:51:08.916Z,101992.96
2018-01-26T14:53:35.354Z,102000.83
2018-01-26T14:56:01.630Z,102004.32
2018-01-26T14:58:27.798Z,102009.99
2018-01-26T15:00:53.993Z,102011.75
2018-01-26T15:03:20.267Z,102015.69
2018-01-26T15:05:46.463Z,102018.78
2018-01-26T15:08:12.900Z,102017.00
2018-01-26T15:10:39.098Z,102019.63
2018-01-26T15:13:05.314Z,102013.52
2018-01-26T15:15:31.568Z,102018.77
2018-01-26T15:17:58.015Z,102023.56
2018-01-26T15:20:24.199Z,102033.64
2018-01-26T15:22:50.428Z,102038.87
2018-01-26T15:25:16.628Z,102040.64
2018-01-26T15:27:42.834Z,102045.89
2018-01-26T15:30:09.071Z,102044.58
2018-01-26T15:32:35.270Z,102051.57
2018-01-26T15:35:01.473Z,102048.98
2018-01-26T15:37:27.736Z,102056.86
2018-01-26T15:39:54.012Z,102061.23
2018-01-26T15:42:20.195Z,102052.46
2018-01-26T15:44:46.438Z,102059.92
2018-01-26T15:47:12.626Z,102069.52
2018-01-26T15:49:38.815Z,102070.84
2018-01-26T15:52:05.617Z,102077.41
2018-01-26T15:54:32.023Z,102082.66
2018-01-26T15:56:58.196Z,102085.30
2018-01-26T15:59:24.426Z,102094.48
2018-01-26T16:01:50.605Z,102094.91
2018-01-26T16:04:16.793Z,102104.52
2018-01-26T16:06:43.032Z,102109.77
2018-01-26T16:09:09.295Z,102115.03
2018-01-26T16:11:35.728Z,102110.66
2018-01-26T16:14:02.595Z,102120.69
2018-01-26T16:16:28.810Z,102115.91
2018-01-26T16:18:55.002Z,102124.20
2018-01-26T16:21:21.214Z,102117.20
2018-01-26T16:23:47.467Z,102119.84
2018-01-26T16:26:13.638Z,102134.25
2018-01-26T16:28:39.822Z,102139.50
2018-01-26T16:31:06.426Z,102146.95
2018-01-26T16:33:32.626Z,102149.57
2018-01-26T16:35:58.818Z,102148.26
2018-01-26T16:38:25.058Z,102157.88
2018-01-26T16:40:51.254Z,102163.12
2018-01-26T16:43:17.804Z,102163.56
2018-01-26T16:45:43.987Z,102168.36
2018-01-26T16:48:10.160Z,102164.88
2018-01-26T16:50:36.679Z,102177.56
2018-01-26T16:53:03.122Z,102176.27
2018-01-26T16:55:29.348Z,102176.25
2018-01-26T16:57:55.625Z,102174.50
2018-01-26T17:00:21.810Z,102173.64
2018-01-26T17:02:48.007Z,102177.14
2018-01-26T17:05:14.616Z,102179.31
2018-01-26T17:07:40.788Z,102178.43
2018-01-26T17:10:07.062Z,102186.30
2018-01-26T17:12:33.561Z,102187.19
2018-01-26T17:14:59.750Z,102183.68
2018-01-26T17:17:25.976Z,102184.56
2018-01-26T17:19:52.222Z,102184.11
2018-01-26T17:22:18.397Z,102191.12
2018-01-26T17:24:44.579Z,102182.39
2018-01-26T17:27:10.786Z,102189.80
2018-01-26T17:29:37.407Z,102191.12
2018-01-26T17:32:04.105Z,102189.81
2018-01-26T17:34:30.353Z,102190.24
2018-01-26T17:36:56.540Z,102195.94
2018-01-26T17:39:23.087Z,102202.03
2018-01-26T17:41:49.282Z,102203.79
2018-01-26T17:44:15.460Z,102205.55
2018-01-26T17:46:41.978Z,102202.94
2018-01-26T17:49:08.458Z,102200.73
2018-01-26T17:51:34.651Z,102209.50
2018-01-26T17:54:00.918Z,102205.55
2018-01-26T17:56:27.110Z,102211.67
2018-01-26T17:58:53.279Z,102213.88
2018-01-26T18:01:19.487Z,102215.17
2018-01-26T18:03:45.674Z,102222.19
2018-01-26T18:06:11.935Z,102227.44
2018-01-26T18:08:38.490Z,102224.80
2018-01-26T18:11:04.916Z,102222.59
2018-01-26T18:13:37.422Z,102233.11
2018-01-26T18:16:03.667Z,102237.93
2018-01-26T18:18:29.860Z,102242.73
2018-01-26T18:20:56.971Z,102243.61
2018-01-26T18:23:23.164Z,102245.36
2018-01-26T18:25:49.343Z,102250.59
2018-01-26T18:28:15.902Z,102256.28
2018-01-26T18:30:42.094Z,102254.09
2018-01-26T18:33:08.365Z,102259.80
2018-01-26T18:35:34.557Z,102262.84
2018-01-26T18:38:00.773Z,102279.89
2018-01-26T18:40:27.230Z,102281.66
2018-01-26T18:42:53.427Z,102288.20
2018-01-26T18:45:19.901Z,102286.45
2018-01-26T18:47:46.107Z,102301.77
2018-01-26T18:50:12.305Z,102300.02
2018-01-26T18:52:38.649Z,102299.58
2018-01-26T18:55:04.840Z,102305.27
2018-01-26T18:57:31.030Z,102307.02
2018-01-26T18:59:57.274Z,102313.14
2018-01-26T19:02:23.466Z,102315.77
2018-01-26T19:04:49.714Z,102318.83
2018-01-26T19:07:15.988Z,102326.27
2018-01-26T19:09:42.180Z,102328.90
2018-01-26T19:12:08.367Z,102327.57
2018-01-26T19:14:34.621Z,102332.81
2018-01-26T19:17:00.813Z,102336.77
2018-01-26T19:19:27.030Z,102341.55
2018-01-26T19:21:53.274Z,102343.77
2018-01-26T19:24:19.451Z,102350.75
2018-01-26T19:26:45.641Z,102339.38
2018-01-26T19:29:11.896Z,102349.00
2018-01-26T19:31:38.087Z,102351.63
2018-01-26T19:34:04.363Z,102362.55
2018-01-26T19:36:30.608Z,102359.92
2018-01-26T19:38:56.782Z,102365.61
2018-01-26T19:41:22.961Z,102364.31
2018-01-26T19:43:49.642Z,102372.17
2018-01-26T19:46:15.879Z,102366.95
2018-01-26T19:48:42.061Z,102370.87
2018-01-26T19:51:08.554Z,102366.05
2018-01-26T19:53:34.753Z,102363.02
2018-01-26T19:56:00.924Z,102359.92
2018-01-26T19:58:27.457Z,102364.31
2018-01-26T20:00:53.999Z,102368.26
2018-01-26T20:03:31.600Z,102367.82
2018-01-26T20:06:03.880Z,102376.55
2018-01-26T20:08:36.080Z,102374.82
2018-01-26T20:11:02.310Z,102382.23
2018-01-26T20:13:28.747Z,102394.02
2018-01-26T20:16:00.217Z,102400.16
2018-01-26T20:18:26.398Z,102411.55
2018-01-26T20:20:53.662Z,102416.34
2018-01-26T20:23:19.885Z,102418.55
2018-01-26T20:25:46.058Z,102427.71
2018-01-26T20:28:12.331Z,102418.95
2018-01-26T20:30:38.730Z,102429.45
2018-01-26T20:33:05.172Z,102430.78
2018-01-26T20:35:31.434Z,102427.70
2018-01-26T20:37:57.603Z,102439.08
2018-01-26T20:40:23.903Z,102436.45
2018-01-26T20:42:50.154Z,102450.01
2018-01-26T20:45:16.581Z,102459.19
2018-01-26T20:47:42.784Z,102460.08
2018-01-26T20:50:09.015Z,102459.63
2018-01-26T20:52:35.218Z,102465.30
2018-01-26T20:55:01.667Z,102460.94
2018-01-26T20:57:28.137Z,102465.75
2018-01-26T20:59:54.320Z,102457.88
2018-01-26T21:02:20.736Z,102462.70
2018-01-26T21:04:46.961Z,102469.67
2018-01-26T21:07:13.252Z,102473.63
2018-01-26T21:09:39.456Z,102479.73
2018-01-26T21:12:05.699Z,102487.18
2018-01-26T21:14:31.905Z,102497.22
2018-01-26T21:16:58.096Z,102490.69
2018-01-26T21:19:24.346Z,102494.59
2018-01-26T21:21:50.574Z,102504.22
2018-01-26T21:24:16.750Z,102505.09
2018-01-26T21:26:42.981Z,102513.86
2018-01-26T21:29:09.161Z,102512.09
2018-01-26T21:31:35.339Z,102520.41
2018-01-26T21:34:01.556Z,102516.92
2018-01-26T21:36:27.746Z,102511.65
2018-01-26T21:38:54.013Z,102516.02
2018-01-26T21:41:20.201Z,102516.47
2018-01-26T21:43:46.376Z,102522.58
2018-01-26T21:46:12.940Z,102528.28
2018-01-26T21:48:39.119Z,102521.25
2018-01-26T21:51:05.337Z,102522.13
2018-01-26T21:53:31.540Z,102519.09
2018-01-26T21:55:57.732Z,102523.01
2018-01-26T21:58:24.328Z,102520.82
2018-01-26T22:00:50.512Z,102522.13
2018-01-26T22:03:16.756Z,102522.14
2018-01-26T22:05:43.008Z,102518.20
2018-01-26T22:08:09.255Z,102523.45
2018-01-26T22:10:35.430Z,102519.50
2018-01-26T22:13:01.891Z,102521.25
2018-01-26T22:15:28.113Z,102533.50
2018-01-26T22:17:54.331Z,102536.11
2018-01-26T22:20:20.545Z,102543.56
2018-01-26T22:22:46.760Z,102540.50
2018-01-26T22:25:13.016Z,102537.86
2018-01-26T22:27:39.545Z,102540.47
2018-01-26T22:30:05.730Z,102543.54
2018-01-26T22:32:31.958Z,102539.17
2018-01-26T22:34:58.143Z,102547.50
2018-01-26T22:37:24.317Z,102548.82
2018-01-26T22:39:50.797Z,102554.92
2018-01-26T22:42:16.978Z,102558.87
2018-01-26T22:44:43.166Z,102564.55
2018-01-26T22:47:10.073Z,102569.36
2018-01-26T22:49:36.611Z,102574.60
2018-01-26T22:52:03.023Z,102575.91
2018-01-26T22:54:29.279Z,102575.03
2018-01-26T22:56:55.682Z,102583.80
2018-01-26T22:59:21.889Z,102581.62
2018-01-26T23:01:48.136Z,102585.54
2018-01-26T23:04:14.330Z,102595.14
2018-01-26T23:06:40.561Z,102593.85
2018-01-26T23:09:07.096Z,102593.86
2018-01-26T23:11:33.277Z,102597.36
2018-01-26T23:13:59.462Z,102599.97
2018-01-26T23:16:25.713Z,102600.84
2018-01-26T23:18:52.164Z,102603.05
2018-01-26T23:21:18.433Z,102602.58
2018-01-26T23:23:44.716Z,102610.47
2018-01-26T23:26:11.261Z,102613.09
2018-01-26T23:28:37.518Z,102618.32
2018-01-26T23:31:03.747Z,102620.93
2018-01-26T23:33:29.944Z,102624.01
2018-01-26T23:35:56.117Z,102625.74
2018-01-26T23:38:22.378Z,102634.91
2018-01-26T23:40:48.568Z,102633.60
2018-01-26T23:43:14.742Z,102638.01
2018-01-26T23:45:40.986Z,102638.44
2018-01-26T23:48:07.187Z,102638.86
2018-01-26T23:50:33.379Z,102634.49
2018-01-26T23:52:59.639Z,102628.38
2018-01-26T23:55:25.824Z,102634.05
2018-01-26T23:57:52.026Z,102633.60
